createdAt,value
2023-03-05T00:01:41.407Z,98663.66
2023-03-05T00:04:15.597Z,98666.94
2023-03-05T00:06:43.664Z,98666.10
2023-03-05T00:09:11.587Z,98663.09
2023-03-05T00:11:39.783Z,98662.30
2023-03-05T00:14:08.088Z,98666.35
2023-03-05T00:16:35.877Z,98664.77
2023-03-05T00:19:04.273Z,98662.64
2023-03-05T00:21:36.466Z,98660.38
2023-03-05T00:24:07.577Z,98656.38
2023-03-05T00:26:40.232Z,98656.09
2023-03-05T00:29:09.368Z,98655.95
2023-03-05T00:31:48.545Z,98657.40
2023-03-05T00:34:18.744Z,98653.42
2023-03-05T00:36:52.049Z,98650.43
2023-03-05T00:39:21.266Z,98646.54
2023-03-05T00:41:49.134Z,98643.13
2023-03-05T00:44:17.042Z,98647.50
2023-03-05T00:46:51.950Z,98640.66
2023-03-05T00:49:22.853Z,98636.98
2023-03-05T00:51:50.713Z,98638.42
2023-03-05T00:54:19.160Z,98639.84
2023-03-05T00:56:52.106Z,98638.50
2023-03-05T00:59:20.064Z,98633.70
2023-03-05T01:01:48.109Z,98632.49
2023-03-05T01:04:28.676Z,98627.41
2023-03-05T01:06:57.022Z,98628.29
2023-03-05T01:09:27.710Z,98627.30
2023-03-05T01:12:00.876Z,98625.98
2023-03-05T01:14:29.104Z,98627.30
2023-03-05T01:16:56.851Z,98625.28
2023-03-05T01:19:24.743Z,98621.66
2023-03-05T01:21:54.209Z,98616.16
2023-03-05T01:24:22.922Z,98617.31
2023-03-05T01:26:54.095Z,98615.41
2023-03-05T01:29:21.936Z,98616.11
2023-03-05T01:31:50.156Z,98623.77
2023-03-05T01:34:19.033Z,98619.30
2023-03-05T01:36:50.100Z,98618.73
2023-03-05T01:39:18.432Z,98621.91
2023-03-05T01:41:47.508Z,98628.66
2023-03-05T01:44:27.296Z,98622.83
2023-03-05T01:46:55.858Z,98625.03
2023-03-05T01:49:38.083Z,98622.02
2023-03-05T01:52:19.763Z,98630.80
2023-03-05T01:55:10.286Z,98632.16
2023-03-05T01:57:43.329Z,98632.23
2023-03-05T02:00:22.958Z,98625.51
2023-03-05T02:02:55.037Z,98628.02
2023-03-05T02:05:29.239Z,98624.98
2023-03-05T02:08:03.618Z,98624.34
2023-03-05T02:10:38.890Z,98624.09
2023-03-05T02:13:18.551Z,98626.77
2023-03-05T02:15:56.900Z,98629.45
2023-03-05T02:18:25.433Z,98626.50
2023-03-05T02:20:56.725Z,98620.13
2023-03-05T02:23:28.236Z,98621.57
2023-03-05T02:25:56.791Z,98616.98
2023-03-05T02:28:48.076Z,98618.36
2023-03-05T02:31:20.131Z,98617.55
2023-03-05T02:33:50.007Z,98626.36
2023-03-05T02:36:19.662Z,98621.73
2023-03-05T02:38:59.969Z,98619.21
2023-03-05T02:41:28.019Z,98609.76
2023-03-05T02:43:56.683Z,98613.23
2023-03-05T02:46:25.054Z,98610.05
2023-03-05T02:48:53.052Z,98618.09
2023-03-05T02:51:20.962Z,98613.25
2023-03-05T02:53:52.699Z,98609.67
2023-03-05T02:56:20.510Z,98608.76
2023-03-05T02:58:48.791Z,98609.67
2023-03-05T03:01:20.160Z,98605.02
2023-03-05T03:03:48.811Z,98605.98
2023-03-05T03:06:16.816Z,98607.17
2023-03-05T03:08:44.824Z,98599.81
2023-03-05T03:11:13.591Z,98600.20
2023-03-05T03:13:42.023Z,98603.42
2023-03-05T03:16:15.793Z,98609.87
2023-03-05T03:18:44.464Z,98612.67
2023-03-05T03:21:37.224Z,98611.48
2023-03-05T03:24:05.849Z,98611.50
2023-03-05T03:26:34.110Z,98615.70
2023-03-05T03:29:02.135Z,98613.13
2023-03-05T03:31:30.072Z,98610.54
2023-03-05T03:33:58.287Z,98609.60
2023-03-05T03:36:26.380Z,98605.48
2023-03-05T03:38:57.607Z,98605.38
2023-03-05T03:41:30.279Z,98602.77
2023-03-05T03:43:58.421Z,98601.18
2023-03-05T03:46:29.641Z,98601.29
2023-03-05T03:48:57.675Z,98596.17
2023-03-05T03:51:25.623Z,98599.58
2023-03-05T03:53:53.945Z,98592.61
2023-03-05T03:56:21.816Z,98590.29
2023-03-05T03:58:58.404Z,98589.09
2023-03-05T04:01:26.236Z,98585.06
2023-03-05T04:03:57.913Z,98583.05
2023-03-05T04:06:25.939Z,98576.52
2023-03-05T04:08:53.990Z,98573.14
2023-03-05T04:11:22.250Z,98571.56
2023-03-05T04:14:06.906Z,98569.20
2023-03-05T04:16:38.597Z,98564.95
2023-03-05T04:19:08.335Z,98557.84
2023-03-05T04:21:36.091Z,98553.77
2023-03-05T04:24:16.055Z,98550.30
2023-03-05T04:26:44.284Z,98543.38
2023-03-05T04:29:12.069Z,98545.00
2023-03-05T04:31:39.924Z,98545.70
2023-03-05T04:34:07.828Z,98536.69
2023-03-05T04:36:35.848Z,98539.48
2023-03-05T04:39:04.829Z,98539.92
2023-03-05T04:41:33.335Z,98538.25
2023-03-05T04:44:01.289Z,98532.28
2023-03-05T04:46:29.235Z,98536.25
2023-03-05T04:48:58.221Z,98536.73
2023-03-05T04:51:26.348Z,98535.88
2023-03-05T04:53:54.380Z,98531.92
2023-03-05T04:56:24.485Z,98536.80
2023-03-05T04:58:52.443Z,98530.98
2023-03-05T05:01:20.471Z,98531.30
2023-03-05T05:03:48.736Z,98533.21
2023-03-05T05:06:16.709Z,98525.23
2023-03-05T05:08:44.608Z,98526.10
2023-03-05T05:11:14.329Z,98524.13
2023-03-05T05:13:42.218Z,98526.61
2023-03-05T05:16:10.351Z,98524.52
2023-03-05T05:18:38.782Z,98527.77
2023-03-05T05:21:12.224Z,98528.31
2023-03-05T05:23:43.062Z,98527.40
2023-03-05T05:26:16.244Z,98529.52
2023-03-05T05:28:44.713Z,98530.09
2023-03-05T05:31:15.563Z,98532.92
2023-03-05T05:34:07.753Z,98529.52
2023-03-05T05:36:35.936Z,98529.27
2023-03-05T05:39:04.330Z,98533.17
2023-03-05T05:41:33.106Z,98530.24
2023-03-05T05:44:01.160Z,98530.66
2023-03-05T05:46:29.165Z,98525.03
2023-03-05T05:48:57.395Z,98527.02
2023-03-05T05:51:25.202Z,98525.55
2023-03-05T05:53:54.017Z,98523.16
2023-03-05T05:56:22.102Z,98515.73
2023-03-05T05:58:50.305Z,98510.27
2023-03-05T06:01:29.057Z,98510.31
2023-03-05T06:03:57.975Z,98514.33
2023-03-05T06:06:27.787Z,98515.69
2023-03-05T06:08:55.786Z,98518.43
2023-03-05T06:11:23.655Z,98522.41
2023-03-05T06:13:51.424Z,98522.67
2023-03-05T06:16:22.093Z,98521.66
2023-03-05T06:18:51.789Z,98522.26
2023-03-05T06:21:21.669Z,98525.29
2023-03-05T06:23:50.681Z,98527.70
2023-03-05T06:26:20.952Z,98528.23
2023-03-05T06:28:49.054Z,98525.70
2023-03-05T06:31:26.019Z,98523.92
2023-03-05T06:34:02.969Z,98522.52
2023-03-05T06:36:31.717Z,98523.77
2023-03-05T06:38:59.656Z,98526.89
2023-03-05T06:41:30.319Z,98526.94
2023-03-05T06:44:00.471Z,98531.81
2023-03-05T06:46:31.351Z,98536.88
2023-03-05T06:49:02.169Z,98534.38
2023-03-05T06:51:32.689Z,98531.73
2023-03-05T06:54:14.254Z,98535.09
2023-03-05T06:56:45.834Z,98535.23
2023-03-05T06:59:16.329Z,98534.72
2023-03-05T07:01:46.916Z,98534.86
2023-03-05T07:04:15.650Z,98533.86
2023-03-05T07:06:43.790Z,98534.09
2023-03-05T07:09:16.411Z,98531.82
2023-03-05T07:11:44.698Z,98530.77
2023-03-05T07:14:12.937Z,98530.44
2023-03-05T07:16:43.459Z,98529.98
2023-03-05T07:19:13.237Z,98528.91
2023-03-05T07:21:45.554Z,98528.30
2023-03-05T07:24:14.409Z,98532.52
2023-03-05T07:26:42.819Z,98529.95
2023-03-05T07:29:10.865Z,98529.09
2023-03-05T07:31:38.701Z,98524.83
2023-03-05T07:34:07.244Z,98526.72
2023-03-05T07:36:35.737Z,98525.98
2023-03-05T07:39:13.497Z,98525.52
2023-03-05T07:41:43.959Z,98520.20
2023-03-05T07:44:26.110Z,98519.55
2023-03-05T07:46:54.414Z,98516.62
2023-03-05T07:49:23.817Z,98515.87
2023-03-05T07:51:59.192Z,98522.52
2023-03-05T07:54:27.382Z,98522.55
2023-03-05T07:56:55.568Z,98522.39
2023-03-05T07:59:26.129Z,98522.58
2023-03-05T08:01:54.551Z,98520.52
2023-03-05T08:04:22.658Z,98520.17
2023-03-05T08:06:50.871Z,98522.08
2023-03-05T08:09:21.030Z,98517.90
2023-03-05T08:11:48.816Z,98512.60
2023-03-05T08:14:17.244Z,98512.34
2023-03-05T08:16:48.389Z,98512.04
2023-03-05T08:19:18.788Z,98510.09
2023-03-05T08:21:56.520Z,98506.40
2023-03-05T08:24:35.798Z,98503.42
2023-03-05T08:27:04.534Z,98497.54
2023-03-05T08:29:32.363Z,98493.41
2023-03-05T08:32:02.055Z,98490.00
2023-03-05T08:34:29.959Z,98489.71
2023-03-05T08:36:57.690Z,98492.73
2023-03-05T08:39:26.268Z,98494.94
2023-03-05T08:41:59.864Z,98495.04
2023-03-05T08:44:27.781Z,98495.17
2023-03-05T08:46:55.965Z,98490.01
2023-03-05T08:49:24.042Z,98486.89
2023-03-05T08:51:52.290Z,98487.13
2023-03-05T08:54:20.674Z,98485.21
2023-03-05T08:56:50.132Z,98482.90
2023-03-05T08:59:18.082Z,98476.52
2023-03-05T09:01:45.977Z,98475.19
2023-03-05T09:04:13.961Z,98475.79
2023-03-05T09:06:42.263Z,98465.53
2023-03-05T09:09:10.893Z,98449.40
2023-03-05T09:11:38.772Z,98463.29
2023-03-05T09:14:07.223Z,98463.90
2023-03-05T09:16:36.320Z,98462.55
2023-03-05T09:19:04.138Z,98456.97
2023-03-05T09:21:32.536Z,98452.61
2023-03-05T09:24:00.927Z,98447.39
2023-03-05T09:26:28.850Z,98446.90
2023-03-05T09:28:56.810Z,98448.31
2023-03-05T09:31:24.615Z,98447.41
2023-03-05T09:33:52.477Z,98444.30
2023-03-05T09:36:23.894Z,98441.16
2023-03-05T09:38:53.101Z,98436.64
2023-03-05T09:41:58.521Z,98441.07
2023-03-05T09:44:35.144Z,98438.54
2023-03-05T09:47:17.845Z,98441.84
2023-03-05T09:50:01.941Z,98441.42
2023-03-05T09:52:37.427Z,98441.01
2023-03-05T09:55:13.119Z,98438.77
2023-03-05T09:57:50.098Z,98438.24
2023-03-05T10:00:42.096Z,98438.44
2023-03-05T10:03:18.550Z,98436.46
2023-03-05T10:05:50.678Z,98438.02
2023-03-05T10:08:24.887Z,98437.99
2023-03-05T10:10:55.439Z,98433.35
2023-03-05T10:13:28.966Z,98431.95
2023-03-05T10:16:34.432Z,98431.27
2023-03-05T10:19:32.528Z,98423.32
2023-03-05T10:22:28.737Z,98421.02
2023-03-05T10:25:11.803Z,98414.76
2023-03-05T10:27:54.268Z,98413.86
2023-03-05T10:30:34.501Z,98410.44
2023-03-05T10:33:16.078Z,98408.84
2023-03-05T10:36:01.275Z,98404.95
2023-03-05T10:38:49.958Z,98403.44
2023-03-05T10:41:26.343Z,98402.13
2023-03-05T10:44:09.706Z,98397.77
2023-03-05T10:46:40.034Z,98389.67
2023-03-05T10:49:19.045Z,98390.02
2023-03-05T10:52:01.964Z,98386.98
2023-03-05T10:54:41.796Z,98387.34
2023-03-05T10:57:27.227Z,98388.84
2023-03-05T11:00:07.120Z,98374.27
2023-03-05T11:02:54.234Z,98373.66
2023-03-05T11:05:51.906Z,98371.88
2023-03-05T11:08:27.796Z,98371.05
2023-03-05T11:11:13.831Z,98368.27
2023-03-05T11:13:45.028Z,98365.89
2023-03-05T11:16:23.663Z,98361.50
2023-03-05T11:19:11.491Z,98356.30
2023-03-05T11:21:39.592Z,98352.04
2023-03-05T11:24:18.522Z,98350.74
2023-03-05T11:26:49.750Z,98340.58
2023-03-05T11:29:24.640Z,98337.26
2023-03-05T11:31:53.382Z,98330.56
2023-03-05T11:34:25.002Z,98321.33
2023-03-05T11:36:53.514Z,98314.34
2023-03-05T11:39:24.687Z,98309.02
2023-03-05T11:41:53.808Z,98298.65
2023-03-05T11:44:23.209Z,98292.33
2023-03-05T11:46:55.271Z,98285.30
2023-03-05T11:49:27.021Z,98286.55
2023-03-05T11:51:58.358Z,98282.82
2023-03-05T11:54:39.241Z,98281.38
2023-03-05T11:57:15.224Z,98277.45
2023-03-05T11:59:44.114Z,98269.35
2023-03-05T12:02:23.135Z,98263.09
2023-03-05T12:04:51.808Z,98252.95
2023-03-05T12:07:28.312Z,98249.05
2023-03-05T12:09:56.806Z,98249.48
2023-03-05T12:12:47.264Z,98249.31
2023-03-05T12:15:17.695Z,98246.89
2023-03-05T12:17:51.152Z,98245.77
2023-03-05T12:20:34.455Z,98248.25
2023-03-05T12:23:02.949Z,98250.81
2023-03-05T12:25:34.994Z,98251.82
2023-03-05T12:28:03.244Z,98249.02
2023-03-05T12:30:34.023Z,98243.70
2023-03-05T12:33:08.398Z,98244.56
2023-03-05T12:35:41.189Z,98240.95
2023-03-05T12:38:30.322Z,98238.39
2023-03-05T12:41:22.871Z,98236.80
2023-03-05T12:44:05.725Z,98237.22
2023-03-05T12:46:42.586Z,98232.44
2023-03-05T12:49:28.361Z,98231.09
2023-03-05T12:51:59.281Z,98230.34
2023-03-05T12:54:39.959Z,98225.27
2023-03-05T12:57:26.473Z,98225.30
2023-03-05T13:00:00.923Z,98220.02
2023-03-05T13:02:37.869Z,98212.48
2023-03-05T13:05:19.766Z,98208.97
2023-03-05T13:07:50.090Z,98207.27
2023-03-05T13:10:28.307Z,98206.66
2023-03-05T13:12:58.550Z,98199.93
2023-03-05T13:15:26.935Z,98201.98
2023-03-05T13:17:57.965Z,98200.05
2023-03-05T13:20:38.561Z,98197.49
2023-03-05T13:23:16.306Z,98192.58
2023-03-05T13:26:01.319Z,98189.52
2023-03-05T13:28:29.941Z,98187.83
2023-03-05T13:30:59.668Z,98187.02
2023-03-05T13:33:34.336Z,98184.76
2023-03-05T13:36:02.495Z,98187.31
2023-03-05T13:38:39.053Z,98180.81
2023-03-05T13:41:29.735Z,98177.83
2023-03-05T13:44:00.832Z,98171.67
2023-03-05T13:46:40.441Z,98176.42
2023-03-05T13:49:26.901Z,98174.45
2023-03-05T13:51:57.891Z,98169.51
2023-03-05T13:54:28.018Z,98173.23
2023-03-05T13:57:05.903Z,98171.88
2023-03-05T13:59:36.663Z,98173.63
2023-03-05T14:02:18.124Z,98176.30
2023-03-05T14:04:47.671Z,98181.66
2023-03-05T14:07:31.657Z,98189.64
2023-03-05T14:10:00.028Z,98200.23
2023-03-05T14:12:31.438Z,98205.71
2023-03-05T14:15:02.409Z,98204.41
2023-03-05T14:17:30.233Z,98202.98
2023-03-05T14:20:13.509Z,98199.05
2023-03-05T14:22:45.107Z,98191.40
2023-03-05T14:25:39.788Z,98190.67
2023-03-05T14:28:16.738Z,98188.55
2023-03-05T14:30:49.537Z,98189.55
2023-03-05T14:33:27.038Z,98190.81
2023-03-05T14:36:07.612Z,98190.75
2023-03-05T14:38:40.438Z,98194.17
2023-03-05T14:41:32.323Z,98191.46
2023-03-05T14:44:01.105Z,98190.51
2023-03-05T14:46:29.588Z,98190.23
2023-03-05T14:48:57.566Z,98185.70
2023-03-05T14:51:25.717Z,98186.76
2023-03-05T14:54:03.018Z,98185.59
2023-03-05T14:56:33.098Z,98184.92
2023-03-05T14:59:01.217Z,98178.63
2023-03-05T15:01:29.506Z,98176.42
2023-03-05T15:03:57.282Z,98174.46
2023-03-05T15:06:38.161Z,98173.10
2023-03-05T15:09:08.201Z,98173.64
2023-03-05T15:11:35.950Z,98168.77
2023-03-05T15:14:03.864Z,98173.27
2023-03-05T15:16:35.001Z,98175.29
2023-03-05T15:19:03.809Z,98175.91
2023-03-05T15:21:32.029Z,98174.98
2023-03-05T15:24:00.578Z,98173.20
2023-03-05T15:26:31.520Z,98174.79
2023-03-05T15:29:01.647Z,98173.05
2023-03-05T15:31:31.195Z,98168.32
2023-03-05T15:33:59.059Z,98170.13
2023-03-05T15:36:27.586Z,98166.32
2023-03-05T15:38:55.817Z,98163.95
2023-03-05T15:41:23.639Z,98166.73
2023-03-05T15:43:51.965Z,98164.66
2023-03-05T15:46:20.116Z,98166.94
2023-03-05T15:48:50.274Z,98170.34
2023-03-05T15:51:20.264Z,98165.36
2023-03-05T15:53:48.668Z,98167.09
2023-03-05T15:56:17.559Z,98170.02
2023-03-05T15:58:45.658Z,98171.82
2023-03-05T16:01:13.697Z,98177.29
2023-03-05T16:03:42.079Z,98186.73
2023-03-05T16:06:12.520Z,98183.05
2023-03-05T16:08:45.170Z,98185.58
2023-03-05T16:11:13.362Z,98189.30
2023-03-05T16:13:42.149Z,98187.33
2023-03-05T16:16:14.056Z,98184.73
2023-03-05T16:18:45.443Z,98187.63
2023-03-05T16:21:14.031Z,98183.30
2023-03-05T16:23:41.898Z,98179.82
2023-03-05T16:26:10.834Z,98182.73
2023-03-05T16:28:38.726Z,98190.94
2023-03-05T16:31:09.020Z,98189.54
2023-03-05T16:33:37.313Z,98191.61
2023-03-05T16:36:11.389Z,98184.40
2023-03-05T16:38:39.442Z,98186.11
2023-03-05T16:41:08.742Z,98188.14
2023-03-05T16:43:37.269Z,98188.48
2023-03-05T16:46:05.808Z,98191.95
2023-03-05T16:48:34.188Z,98192.94
2023-03-05T16:51:01.936Z,98189.23
2023-03-05T16:53:30.231Z,98194.83
2023-03-05T16:55:57.991Z,98198.95
2023-03-05T16:58:26.240Z,98202.11
2023-03-05T17:00:54.566Z,98203.35
2023-03-05T17:03:22.702Z,98201.24
2023-03-05T17:05:52.977Z,98207.80
2023-03-05T17:08:29.942Z,98204.77
2023-03-05T17:10:58.231Z,98208.98
2023-03-05T17:13:26.611Z,98210.04
2023-03-05T17:15:56.372Z,98207.45
2023-03-05T17:18:25.561Z,98207.98
2023-03-05T17:20:54.008Z,98208.38
2023-03-05T17:23:22.037Z,98208.92
2023-03-05T17:25:50.851Z,98208.41
2023-03-05T17:28:19.172Z,98205.83
2023-03-05T17:31:00.167Z,98201.65
2023-03-05T17:33:29.218Z,98201.45
2023-03-05T17:35:58.304Z,98196.20
2023-03-05T17:38:27.290Z,98193.61
2023-03-05T17:40:55.632Z,98192.02
2023-03-05T17:43:23.911Z,98187.16
2023-03-05T17:45:51.964Z,98190.10
2023-03-05T17:48:19.736Z,98194.78
2023-03-05T17:50:50.440Z,98194.63
2023-03-05T17:53:19.127Z,98195.73
2023-03-05T17:55:46.965Z,98195.40
2023-03-05T17:58:14.880Z,98199.46
2023-03-05T18:00:43.096Z,98200.56
2023-03-05T18:03:12.760Z,98197.33
2023-03-05T18:05:41.195Z,98195.94
2023-03-05T18:08:08.959Z,98197.86
2023-03-05T18:10:36.767Z,98196.34
2023-03-05T18:13:04.674Z,98197.23
2023-03-05T18:15:33.872Z,98201.66
2023-03-05T18:18:02.159Z,98205.70
2023-03-05T18:20:36.029Z,98206.75
2023-03-05T18:23:05.483Z,98205.19
2023-03-05T18:25:33.988Z,98213.58
2023-03-05T18:28:11.540Z,98210.99
2023-03-05T18:30:41.673Z,98214.55
2023-03-05T18:33:19.353Z,98216.95
2023-03-05T18:35:49.698Z,98213.96
2023-03-05T18:38:23.425Z,98209.55
2023-03-05T18:40:52.410Z,98215.48
2023-03-05T18:43:23.645Z,98210.27
2023-03-05T18:45:57.605Z,98210.64
2023-03-05T18:48:26.385Z,98211.58
2023-03-05T18:50:54.817Z,98211.07
2023-03-05T18:53:22.977Z,98210.13
2023-03-05T18:55:52.519Z,98204.38
2023-03-05T18:58:20.613Z,98205.98
2023-03-05T19:00:48.983Z,98203.90
2023-03-05T19:03:19.832Z,98205.86
2023-03-05T19:05:51.295Z,98202.65
2023-03-05T19:08:20.124Z,98200.21
2023-03-05T19:10:48.017Z,98197.07
2023-03-05T19:13:35.908Z,98196.56
2023-03-05T19:16:13.821Z,98198.20
2023-03-05T19:18:57.276Z,98198.72
2023-03-05T19:21:32.632Z,98200.45
2023-03-05T19:24:00.961Z,98204.33
2023-03-05T19:26:29.303Z,98207.91
2023-03-05T19:28:57.470Z,98213.69
2023-03-05T19:31:25.471Z,98211.61
2023-03-05T19:33:54.421Z,98214.95
2023-03-05T19:36:22.553Z,98215.85
2023-03-05T19:38:54.115Z,98217.41
2023-03-05T19:41:22.800Z,98216.34
2023-03-05T19:43:50.963Z,98215.73
2023-03-05T19:46:19.579Z,98211.66
2023-03-05T19:48:47.726Z,98214.21
2023-03-05T19:51:17.951Z,98218.80
2023-03-05T19:53:49.250Z,98219.83
2023-03-05T19:56:18.713Z,98224.39
2023-03-05T19:58:49.311Z,98223.33
2023-03-05T20:01:23.833Z,98218.48
2023-03-05T20:03:54.160Z,98212.49
2023-03-05T20:06:23.861Z,98208.98
2023-03-05T20:08:53.336Z,98198.48
2023-03-05T20:11:22.302Z,98196.90
2023-03-05T20:13:50.998Z,98190.14
2023-03-05T20:16:22.318Z,98194.19
2023-03-05T20:18:56.146Z,98192.52
2023-03-05T20:21:36.320Z,98183.19
2023-03-05T20:24:09.811Z,98179.25
2023-03-05T20:26:41.020Z,98177.87
2023-03-05T20:29:13.830Z,98181.45
2023-03-05T20:31:43.415Z,98180.77
2023-03-05T20:34:14.046Z,98183.90
2023-03-05T20:36:41.941Z,98188.01
2023-03-05T20:39:10.267Z,98194.79
2023-03-05T20:41:39.837Z,98196.02
2023-03-05T20:44:11.541Z,98194.63
2023-03-05T20:46:49.612Z,98200.80
2023-03-05T20:49:18.325Z,98198.79
2023-03-05T20:51:49.103Z,98199.19
2023-03-05T20:54:18.855Z,98190.98
2023-03-05T20:56:48.231Z,98191.60
2023-03-05T20:59:28.083Z,98187.59
2023-03-05T21:01:55.932Z,98186.41
2023-03-05T21:04:35.229Z,98184.13
2023-03-05T21:07:06.810Z,98182.55
2023-03-05T21:09:39.655Z,98184.52
2023-03-05T21:12:18.673Z,98186.65
2023-03-05T21:14:53.009Z,98184.59
2023-03-05T21:17:22.151Z,98185.96
2023-03-05T21:19:53.595Z,98187.70
2023-03-05T21:22:22.235Z,98181.59
2023-03-05T21:25:03.426Z,98183.09
2023-03-05T21:27:35.120Z,98178.90
2023-03-05T21:30:06.619Z,98176.52
2023-03-05T21:32:38.041Z,98178.41
2023-03-05T21:35:15.924Z,98170.40
2023-03-05T21:37:44.627Z,98168.40
2023-03-05T21:40:19.057Z,98165.02
2023-03-05T21:42:48.117Z,98163.59
2023-03-05T21:45:23.317Z,98164.59
2023-03-05T21:47:52.757Z,98162.64
2023-03-05T21:50:21.563Z,98159.92
2023-03-05T21:52:50.410Z,98154.52
2023-03-05T21:55:32.402Z,98151.91
2023-03-05T21:58:00.701Z,98152.98
2023-03-05T22:00:28.984Z,98153.45
2023-03-05T22:02:58.896Z,98158.48
2023-03-05T22:05:29.493Z,98163.02
2023-03-05T22:08:00.196Z,98156.55
2023-03-05T22:10:28.009Z,98158.63
2023-03-05T22:13:10.697Z,98157.07
2023-03-05T22:15:44.342Z,98160.21
2023-03-05T22:18:15.104Z,98162.39
2023-03-05T22:20:43.753Z,98163.56
2023-03-05T22:23:15.452Z,98164.33
2023-03-05T22:25:43.966Z,98160.57
2023-03-05T22:28:13.039Z,98166.86
2023-03-05T22:30:47.501Z,98165.23
2023-03-05T22:33:15.266Z,98167.92
2023-03-05T22:36:10.657Z,98166.32
2023-03-05T22:38:39.002Z,98164.05
2023-03-05T22:41:11.971Z,98159.49
2023-03-05T22:43:40.028Z,98167.30
2023-03-05T22:46:17.700Z,98172.28
2023-03-05T22:48:49.378Z,98169.12
2023-03-05T22:51:20.509Z,98168.98
2023-03-05T22:53:48.560Z,98172.40
2023-03-05T22:56:19.364Z,98174.13
2023-03-05T22:58:47.986Z,98168.13
2023-03-05T23:01:22.688Z,98169.10
2023-03-05T23:04:03.563Z,98175.92
2023-03-05T23:06:31.494Z,98168.29
2023-03-05T23:08:59.289Z,98170.78
2023-03-05T23:11:30.026Z,98170.63
2023-03-05T23:13:58.445Z,98171.89
2023-03-05T23:16:26.717Z,98173.15
2023-03-05T23:18:54.777Z,98171.08
2023-03-05T23:21:25.157Z,98166.33
2023-03-05T23:23:57.903Z,98162.14
2023-03-05T23:26:25.780Z,98158.77
2023-03-05T23:28:54.243Z,98155.43
2023-03-05T23:31:22.621Z,98153.86
2023-03-05T23:33:50.477Z,98151.13
2023-03-05T23:36:20.021Z,98153.30
2023-03-05T23:38:47.955Z,98153.54
2023-03-05T23:41:16.126Z,98149.78
2023-03-05T23:43:44.571Z,98155.40
2023-03-05T23:46:12.949Z,98149.79
2023-03-05T23:48:40.986Z,98147.70
2023-03-05T23:51:17.156Z,98152.13
2023-03-05T23:53:45.175Z,98153.17
2023-03-05T23:56:17.019Z,98149.17
2023-03-05T23:58:44.850Z,98144.64
